sensor_id;sensor_type;location;lat;lon;timestamp;P1;durP1;ratioP1;P2;durP2;ratioP2
71806;SDS011;59655;42.590;23.364;2024-01-15T00:01:11;15.38;;;6.78;;
71806;SDS011;59655;42.590;23.364;2024-01-15T00:03:36;26.87;;;10.70;;
71806;SDS011;59655;42.590;23.364;2024-01-15T00:06:02;25.25;;;9.80;;
71806;SDS011;59655;42.590;23.364;2024-01-15T00:08:27;50.60;;;19.15;;
71806;SDS011;59655;42.590;23.364;2024-01-15T00:10:53;33.77;;;12.80;;
71806;SDS011;59655;42.590;23.364;2024-01-15T00:13:18;30.27;;;12.20;;
71806;SDS011;59655;42.590;23.364;2024-01-15T00:15:43;18.30;;;8.52;;
71806;SDS011;59655;42.590;23.364;2024-01-15T00:18:09;16.08;;;6.15;;
71806;SDS011;59655;42.590;23.364;2024-01-15T00:20:34;16.30;;;6.57;;
71806;SDS011;59655;42.590;23.364;2024-01-15T00:22:59;15.13;;;6.35;;
71806;SDS011;59655;42.590;23.364;2024-01-15T00:25:25;12.60;;;6.38;;
71806;SDS011;59655;42.590;23.364;2024-01-15T00:27:50;24.50;;;12.52;;
71806;SDS011;59655;42.590;23.364;2024-01-15T00:30:15;17.50;;;9.30;;
71806;SDS011;59655;42.590;23.364;2024-01-15T00:32:41;16.88;;;5.53;;
71806;SDS011;59655;42.590;23.364;2024-01-15T00:35:06;13.15;;;6.35;;
71806;SDS011;59655;42.590;23.364;2024-01-15T00:37:32;13.02;;;5.18;;
71806;SDS011;59655;42.590;23.364;2024-01-15T00:39:57;13.75;;;6.80;;
71806;SDS011;59655;42.590;23.364;2024-01-15T00:42:22;12.93;;;5.65;;
71806;SDS011;59655;42.590;23.364;2024-01-15T00:44:48;14.20;;;5.87;;
71806;SDS011;59655;42.590;23.364;2024-01-15T00:47:13;8.13;;;4.18;;
71806;SDS011;59655;42.590;23.364;2024-01-15T00:49:38;10.68;;;4.43;;
71806;SDS011;59655;42.590;23.364;2024-01-15T00:52:04;17.77;;;8.10;;
71806;SDS011;59655;42.590;23.364;2024-01-15T00:54:29;20.40;;;9.35;;
71806;SDS011;59655;42.590;23.364;2024-01-15T00:56:54;27.92;;;9.65;;
71806;SDS011;59655;42.590;23.364;2024-01-15T00:59:20;29.20;;;11.32;;
71806;SDS011;59655;42.590;23.364;2024-01-15T01:01:46;27.30;;;9.10;;
71806;SDS011;59655;42.590;23.364;2024-01-15T01:04:12;19.27;;;9.35;;
71806;SDS011;59655;42.590;23.364;2024-01-15T01:06:38;18.75;;;8.20;;
71806;SDS011;59655;42.590;23.364;2024-01-15T01:09:03;22.40;;;8.13;;
71806;SDS011;59655;42.590;23.364;2024-01-15T01:11:28;13.38;;;6.63;;
71806;SDS011;59655;42.590;23.364;2024-01-15T01:13:54;19.33;;;7.53;;
71806;SDS011;59655;42.590;23.364;2024-01-15T01:16:19;17.92;;;8.98;;
71806;SDS011;59655;42.590;23.364;2024-01-15T01:18:45;16.42;;;7.40;;
71806;SDS011;59655;42.590;23.364;2024-01-15T01:21:10;15.05;;;6.50;;
71806;SDS011;59655;42.590;23.364;2024-01-15T01:23:35;18.88;;;8.35;;
71806;SDS011;59655;42.590;23.364;2024-01-15T01:26:00;15.05;;;5.88;;
71806;SDS011;59655;42.590;23.364;2024-01-15T01:28:26;11.50;;;5.18;;
71806;SDS011;59655;42.590;23.364;2024-01-15T01:30:51;14.85;;;6.10;;
71806;SDS011;59655;42.590;23.364;2024-01-15T01:33:16;13.45;;;6.38;;
71806;SDS011;59655;42.590;23.364;2024-01-15T01:35:42;14.57;;;6.68;;
71806;SDS011;59655;42.590;23.364;2024-01-15T01:38:09;15.15;;;6.53;;
71806;SDS011;59655;42.590;23.364;2024-01-15T01:40:34;15.13;;;6.82;;
71806;SDS011;59655;42.590;23.364;2024-01-15T01:42:59;15.68;;;6.00;;
71806;SDS011;59655;42.590;23.364;2024-01-15T01:45:25;16.17;;;7.33;;
71806;SDS011;59655;42.590;23.364;2024-01-15T01:47:50;16.25;;;7.10;;
71806;SDS011;59655;42.590;23.364;2024-01-15T01:50:16;30.13;;;11.25;;
71806;SDS011;59655;42.590;23.364;2024-01-15T01:52:41;23.55;;;8.75;;
71806;SDS011;59655;42.590;23.364;2024-01-15T01:55:07;20.42;;;9.40;;
71806;SDS011;59655;42.590;23.364;2024-01-15T01:57:34;17.10;;;7.90;;
71806;SDS011;59655;42.590;23.364;2024-01-15T02:00:01;19.95;;;8.18;;
71806;SDS011;59655;42.590;23.364;2024-01-15T02:02:29;27.38;;;13.35;;
71806;SDS011;59655;42.590;23.364;2024-01-15T02:04:55;20.85;;;10.48;;
71806;SDS011;59655;42.590;23.364;2024-01-15T02:07:20;25.35;;;11.70;;
71806;SDS011;59655;42.590;23.364;2024-01-15T02:09:46;57.00;;;19.90;;
71806;SDS011;59655;42.590;23.364;2024-01-15T02:12:11;16.75;;;7.38;;
71806;SDS011;59655;42.590;23.364;2024-01-15T02:14:36;38.75;;;12.85;;
71806;SDS011;59655;42.590;23.364;2024-01-15T02:17:02;19.38;;;8.25;;
71806;SDS011;59655;42.590;23.364;2024-01-15T02:19:28;21.88;;;8.93;;
71806;SDS011;59655;42.590;23.364;2024-01-15T02:21:53;18.13;;;8.33;;
71806;SDS011;59655;42.590;23.364;2024-01-15T02:24:18;19.53;;;8.40;;
71806;SDS011;59655;42.590;23.364;2024-01-15T02:26:43;21.23;;;9.45;;
71806;SDS011;59655;42.590;23.364;2024-01-15T02:29:09;24.30;;;10.75;;
71806;SDS011;59655;42.590;23.364;2024-01-15T02:31:38;23.45;;;11.45;;
71806;SDS011;59655;42.590;23.364;2024-01-15T02:34:04;20.63;;;9.30;;
71806;SDS011;59655;42.590;23.364;2024-01-15T02:36:29;32.90;;;18.73;;
71806;SDS011;59655;42.590;23.364;2024-01-15T02:38:55;20.98;;;10.18;;
71806;SDS011;59655;42.590;23.364;2024-01-15T02:41:20;20.08;;;8.63;;
71806;SDS011;59655;42.590;23.364;2024-01-15T02:43:45;15.07;;;7.93;;
71806;SDS011;59655;42.590;23.364;2024-01-15T02:46:11;24.17;;;9.77;;
71806;SDS011;59655;42.590;23.364;2024-01-15T02:48:36;21.73;;;8.00;;
71806;SDS011;59655;42.590;23.364;2024-01-15T02:51:01;12.33;;;5.27;;
71806;SDS011;59655;42.590;23.364;2024-01-15T02:53:27;13.55;;;5.68;;
71806;SDS011;59655;42.590;23.364;2024-01-15T02:55:52;14.75;;;6.25;;
71806;SDS011;59655;42.590;23.364;2024-01-15T02:58:18;19.63;;;8.00;;
71806;SDS011;59655;42.590;23.364;2024-01-15T03:00:43;17.15;;;7.18;;
71806;SDS011;59655;42.590;23.364;2024-01-15T03:03:09;17.52;;;7.50;;
71806;SDS011;59655;42.590;23.364;2024-01-15T03:05:34;16.55;;;6.85;;
71806;SDS011;59655;42.590;23.364;2024-01-15T03:07:59;13.82;;;6.18;;
71806;SDS011;59655;42.590;23.364;2024-01-15T03:10:25;11.07;;;4.53;;
71806;SDS011;59655;42.590;23.364;2024-01-15T03:12:50;12.52;;;5.47;;
71806;SDS011;59655;42.590;23.364;2024-01-15T03:15:16;15.50;;;5.32;;
71806;SDS011;59655;42.590;23.364;2024-01-15T03:17:43;12.60;;;5.80;;
71806;SDS011;59655;42.590;23.364;2024-01-15T03:20:08;15.82;;;5.55;;
71806;SDS011;59655;42.590;23.364;2024-01-15T03:22:34;14.77;;;6.05;;
71806;SDS011;59655;42.590;23.364;2024-01-15T03:24:59;12.30;;;5.45;;
71806;SDS011;59655;42.590;23.364;2024-01-15T03:27:25;14.07;;;6.00;;
71806;SDS011;59655;42.590;23.364;2024-01-15T03:29:51;15.63;;;6.47;;
71806;SDS011;59655;42.590;23.364;2024-01-15T03:32:16;15.07;;;6.40;;
71806;SDS011;59655;42.590;23.364;2024-01-15T03:34:41;14.55;;;6.38;;
71806;SDS011;59655;42.590;23.364;2024-01-15T03:37:07;17.88;;;6.75;;
71806;SDS011;59655;42.590;23.364;2024-01-15T03:39:32;17.03;;;7.20;;
71806;SDS011;59655;42.590;23.364;2024-01-15T03:41:57;17.75;;;6.68;;
71806;SDS011;59655;42.590;23.364;2024-01-15T03:44:23;17.90;;;7.05;;
71806;SDS011;59655;42.590;23.364;2024-01-15T03:46:48;16.73;;;7.07;;
71806;SDS011;59655;42.590;23.364;2024-01-15T03:49:13;14.07;;;5.88;;
71806;SDS011;59655;42.590;23.364;2024-01-15T03:51:39;14.32;;;5.97;;
71806;SDS011;59655;42.590;23.364;2024-01-15T03:54:04;16.83;;;5.70;;
71806;SDS011;59655;42.590;23.364;2024-01-15T03:56:29;17.05;;;6.40;;
71806;SDS011;59655;42.590;23.364;2024-01-15T03:58:55;12.23;;;6.13;;
71806;SDS011;59655;42.590;23.364;2024-01-15T04:01:20;17.77;;;6.07;;
71806;SDS011;59655;42.590;23.364;2024-01-15T04:03:45;14.02;;;5.93;;
71806;SDS011;59655;42.590;23.364;2024-01-15T04:06:11;14.63;;;6.33;;
71806;SDS011;59655;42.590;23.364;2024-01-15T04:08:36;16.95;;;6.68;;
71806;SDS011;59655;42.590;23.364;2024-01-15T04:11:01;15.02;;;5.75;;
71806;SDS011;59655;42.590;23.364;2024-01-15T04:13:27;15.70;;;6.32;;
71806;SDS011;59655;42.590;23.364;2024-01-15T04:15:52;17.73;;;7.70;;
71806;SDS011;59655;42.590;23.364;2024-01-15T04:18:18;16.30;;;7.10;;
71806;SDS011;59655;42.590;23.364;2024-01-15T04:20:43;23.45;;;8.63;;
71806;SDS011;59655;42.590;23.364;2024-01-15T04:23:08;18.10;;;6.90;;
71806;SDS011;59655;42.590;23.364;2024-01-15T04:25:34;27.48;;;10.77;;
71806;SDS011;59655;42.590;23.364;2024-01-15T04:27:59;34.08;;;12.88;;
71806;SDS011;59655;42.590;23.364;2024-01-15T04:30:25;35.65;;;13.80;;
71806;SDS011;59655;42.590;23.364;2024-01-15T04:32:50;34.80;;;14.88;;
71806;SDS011;59655;42.590;23.364;2024-01-15T04:35:15;25.43;;;10.97;;
71806;SDS011;59655;42.590;23.364;2024-01-15T04:37:41;23.90;;;12.60;;
71806;SDS011;59655;42.590;23.364;2024-01-15T04:40:07;26.15;;;11.20;;
71806;SDS011;59655;42.590;23.364;2024-01-15T04:42:32;22.00;;;10.40;;
71806;SDS011;59655;42.590;23.364;2024-01-15T04:44:58;23.17;;;8.43;;
71806;SDS011;59655;42.590;23.364;2024-01-15T04:47:23;20.08;;;9.35;;
71806;SDS011;59655;42.590;23.364;2024-01-15T04:49:49;28.55;;;9.18;;
71806;SDS011;59655;42.590;23.364;2024-01-15T04:52:14;20.85;;;8.85;;
71806;SDS011;59655;42.590;23.364;2024-01-15T04:54:40;20.33;;;8.45;;
71806;SDS011;59655;42.590;23.364;2024-01-15T04:57:05;27.85;;;9.27;;
71806;SDS011;59655;42.590;23.364;2024-01-15T04:59:31;27.73;;;11.35;;
71806;SDS011;59655;42.590;23.364;2024-01-15T05:01:56;48.22;;;16.80;;
71806;SDS011;59655;42.590;23.364;2024-01-15T05:04:21;35.30;;;19.35;;
71806;SDS011;59655;42.590;23.364;2024-01-15T05:06:47;27.23;;;11.82;;
71806;SDS011;59655;42.590;23.364;2024-01-15T05:09:12;23.15;;;8.25;;
71806;SDS011;59655;42.590;23.364;2024-01-15T05:11:38;23.95;;;9.20;;
71806;SDS011;59655;42.590;23.364;2024-01-15T05:14:04;26.17;;;11.20;;
71806;SDS011;59655;42.590;23.364;2024-01-15T05:16:29;68.72;;;22.52;;
71806;SDS011;59655;42.590;23.364;2024-01-15T05:18:55;69.10;;;21.50;;
71806;SDS011;59655;42.590;23.364;2024-01-15T05:21:20;32.92;;;11.85;;
71806;SDS011;59655;42.590;23.364;2024-01-15T05:23:45;31.33;;;11.20;;
71806;SDS011;59655;42.590;23.364;2024-01-15T05:26:11;34.45;;;10.82;;
71806;SDS011;59655;42.590;23.364;2024-01-15T05:28:36;34.63;;;10.97;;
71806;SDS011;59655;42.590;23.364;2024-01-15T05:31:01;23.48;;;7.68;;
71806;SDS011;59655;42.590;23.364;2024-01-15T05:33:27;19.17;;;7.43;;
71806;SDS011;59655;42.590;23.364;2024-01-15T05:35:52;14.40;;;6.43;;
71806;SDS011;59655;42.590;23.364;2024-01-15T05:38:18;18.45;;;6.22;;
71806;SDS011;59655;42.590;23.364;2024-01-15T05:40:44;15.00;;;5.43;;
71806;SDS011;59655;42.590;23.364;2024-01-15T05:43:09;13.60;;;6.20;;
71806;SDS011;59655;42.590;23.364;2024-01-15T05:45:35;16.33;;;6.20;;
71806;SDS011;59655;42.590;23.364;2024-01-15T05:48:03;13.98;;;5.65;;
71806;SDS011;59655;42.590;23.364;2024-01-15T05:50:28;16.30;;;5.90;;
71806;SDS011;59655;42.590;23.364;2024-01-15T05:52:54;72.15;;;29.67;;
71806;SDS011;59655;42.590;23.364;2024-01-15T05:55:19;18.75;;;7.25;;
71806;SDS011;59655;42.590;23.364;2024-01-15T05:57:45;14.90;;;5.53;;
71806;SDS011;59655;42.590;23.364;2024-01-15T06:00:10;18.52;;;9.05;;
71806;SDS011;59655;42.590;23.364;2024-01-15T06:02:39;17.38;;;7.40;;
71806;SDS011;59655;42.590;23.364;2024-01-15T06:05:05;17.90;;;7.22;;
71806;SDS011;59655;42.590;23.364;2024-01-15T06:07:31;18.38;;;9.15;;
71806;SDS011;59655;42.590;23.364;2024-01-15T06:09:56;17.70;;;5.53;;
71806;SDS011;59655;42.590;23.364;2024-01-15T06:12:24;14.15;;;5.82;;
71806;SDS011;59655;42.590;23.364;2024-01-15T06:14:50;13.98;;;5.95;;
71806;SDS011;59655;42.590;23.364;2024-01-15T06:17:15;15.43;;;6.57;;
71806;SDS011;59655;42.590;23.364;2024-01-15T06:19:40;15.70;;;6.60;;
71806;SDS011;59655;42.590;23.364;2024-01-15T06:22:05;14.20;;;6.63;;
71806;SDS011;59655;42.590;23.364;2024-01-15T06:24:31;23.23;;;8.23;;
71806;SDS011;59655;42.590;23.364;2024-01-15T06:26:56;14.25;;;6.75;;
71806;SDS011;59655;42.590;23.364;2024-01-15T06:29:21;25.40;;;11.35;;
71806;SDS011;59655;42.590;23.364;2024-01-15T06:31:49;30.98;;;12.75;;
71806;SDS011;59655;42.590;23.364;2024-01-15T06:34:14;37.27;;;14.87;;
71806;SDS011;59655;42.590;23.364;2024-01-15T06:36:40;52.88;;;17.00;;
71806;SDS011;59655;42.590;23.364;2024-01-15T06:39:05;38.05;;;13.98;;
71806;SDS011;59655;42.590;23.364;2024-01-15T06:41:30;48.83;;;14.33;;
71806;SDS011;59655;42.590;23.364;2024-01-15T06:43:56;47.97;;;13.07;;
71806;SDS011;59655;42.590;23.364;2024-01-15T06:46:21;13.95;;;5.75;;
71806;SDS011;59655;42.590;23.364;2024-01-15T06:48:47;13.00;;;4.72;;
71806;SDS011;59655;42.590;23.364;2024-01-15T06:51:13;13.10;;;5.07;;
71806;SDS011;59655;42.590;23.364;2024-01-15T06:53:38;10.07;;;4.82;;
71806;SDS011;59655;42.590;23.364;2024-01-15T06:56:03;14.00;;;4.97;;
71806;SDS011;59655;42.590;23.364;2024-01-15T06:58:30;10.48;;;4.55;;
71806;SDS011;59655;42.590;23.364;2024-01-15T07:00:56;10.93;;;4.55;;
71806;SDS011;59655;42.590;23.364;2024-01-15T07:03:21;10.45;;;4.22;;
71806;SDS011;59655;42.590;23.364;2024-01-15T07:05:47;11.93;;;4.70;;
71806;SDS011;59655;42.590;23.364;2024-01-15T07:08:12;14.57;;;4.78;;
71806;SDS011;59655;42.590;23.364;2024-01-15T07:10:38;11.77;;;4.35;;
71806;SDS011;59655;42.590;23.364;2024-01-15T07:13:03;11.27;;;4.82;;
71806;SDS011;59655;42.590;23.364;2024-01-15T07:15:30;11.60;;;4.47;;
71806;SDS011;59655;42.590;23.364;2024-01-15T07:17:55;10.43;;;4.38;;
71806;SDS011;59655;42.590;23.364;2024-01-15T07:20:21;14.35;;;6.70;;
71806;SDS011;59655;42.590;23.364;2024-01-15T07:22:47;9.65;;;4.18;;
71806;SDS011;59655;42.590;23.364;2024-01-15T07:25:12;12.93;;;4.30;;
71806;SDS011;59655;42.590;23.364;2024-01-15T07:27:37;12.45;;;4.65;;
71806;SDS011;59655;42.590;23.364;2024-01-15T07:30:03;11.07;;;4.35;;
71806;SDS011;59655;42.590;23.364;2024-01-15T07:32:30;13.82;;;5.32;;
71806;SDS011;59655;42.590;23.364;2024-01-15T07:34:56;10.02;;;5.38;;
71806;SDS011;59655;42.590;23.364;2024-01-15T07:37:22;17.33;;;6.72;;
71806;SDS011;59655;42.590;23.364;2024-01-15T07:39:48;13.05;;;5.68;;
71806;SDS011;59655;42.590;23.364;2024-01-15T07:42:14;29.27;;;12.75;;
71806;SDS011;59655;42.590;23.364;2024-01-15T07:44:39;23.80;;;9.07;;
71806;SDS011;59655;42.590;23.364;2024-01-15T07:47:05;17.75;;;7.80;;
71806;SDS011;59655;42.590;23.364;2024-01-15T07:49:30;21.83;;;9.45;;
71806;SDS011;59655;42.590;23.364;2024-01-15T07:51:55;30.88;;;17.45;;
71806;SDS011;59655;42.590;23.364;2024-01-15T07:54:21;28.53;;;15.93;;
71806;SDS011;59655;42.590;23.364;2024-01-15T07:57:02;14.17;;;6.70;;
71806;SDS011;59655;42.590;23.364;2024-01-15T07:59:28;12.50;;;5.07;;
71806;SDS011;59655;42.590;23.364;2024-01-15T08:01:53;10.85;;;4.65;;
71806;SDS011;59655;42.590;23.364;2024-01-15T08:04:19;9.75;;;4.40;;
71806;SDS011;59655;42.590;23.364;2024-01-15T08:06:45;11.82;;;5.25;;
71806;SDS011;59655;42.590;23.364;2024-01-15T08:09:11;41.33;;;11.57;;
71806;SDS011;59655;42.590;23.364;2024-01-15T08:11:40;42.75;;;15.35;;
71806;SDS011;59655;42.590;23.364;2024-01-15T08:14:09;36.65;;;12.30;;
71806;SDS011;59655;42.590;23.364;2024-01-15T08:16:35;31.10;;;11.48;;
71806;SDS011;59655;42.590;23.364;2024-01-15T08:19:01;30.92;;;11.43;;
71806;SDS011;59655;42.590;23.364;2024-01-15T08:21:26;50.05;;;20.95;;
71806;SDS011;59655;42.590;23.364;2024-01-15T08:24:01;64.70;;;27.75;;
71806;SDS011;59655;42.590;23.364;2024-01-15T08:26:27;63.53;;;26.40;;
71806;SDS011;59655;42.590;23.364;2024-01-15T08:28:55;27.65;;;14.60;;
71806;SDS011;59655;42.590;23.364;2024-01-15T08:31:22;26.95;;;13.38;;
71806;SDS011;59655;42.590;23.364;2024-01-15T08:33:48;28.05;;;12.63;;
71806;SDS011;59655;42.590;23.364;2024-01-15T08:36:13;22.80;;;9.65;;
71806;SDS011;59655;42.590;23.364;2024-01-15T08:38:38;21.20;;;9.27;;
71806;SDS011;59655;42.590;23.364;2024-01-15T08:41:04;24.30;;;8.75;;
71806;SDS011;59655;42.590;23.364;2024-01-15T08:43:29;21.15;;;7.95;;
71806;SDS011;59655;42.590;23.364;2024-01-15T08:45:56;14.23;;;7.38;;
71806;SDS011;59655;42.590;23.364;2024-01-15T08:48:22;15.85;;;6.35;;
71806;SDS011;59655;42.590;23.364;2024-01-15T08:50:47;18.30;;;6.57;;
71806;SDS011;59655;42.590;23.364;2024-01-15T08:53:12;15.02;;;7.38;;
71806;SDS011;59655;42.590;23.364;2024-01-15T08:55:38;17.17;;;7.68;;
71806;SDS011;59655;42.590;23.364;2024-01-15T08:58:04;14.40;;;5.78;;
71806;SDS011;59655;42.590;23.364;2024-01-15T09:00:29;14.52;;;6.45;;
71806;SDS011;59655;42.590;23.364;2024-01-15T09:02:56;16.27;;;6.13;;
71806;SDS011;59655;42.590;23.364;2024-01-15T09:05:21;20.02;;;7.22;;
71806;SDS011;59655;42.590;23.364;2024-01-15T09:07:47;18.58;;;7.45;;
71806;SDS011;59655;42.590;23.364;2024-01-15T09:10:13;15.95;;;6.93;;
71806;SDS011;59655;42.590;23.364;2024-01-15T09:12:38;13.13;;;5.95;;
71806;SDS011;59655;42.590;23.364;2024-01-15T09:15:04;34.22;;;15.80;;
71806;SDS011;59655;42.590;23.364;2024-01-15T09:17:31;22.55;;;12.38;;
71806;SDS011;59655;42.590;23.364;2024-01-15T09:19:57;16.88;;;7.72;;
71806;SDS011;59655;42.590;23.364;2024-01-15T09:22:22;11.70;;;4.30;;
71806;SDS011;59655;42.590;23.364;2024-01-15T09:24:48;6.53;;;1.83;;
71806;SDS011;59655;42.590;23.364;2024-01-15T09:27:13;3.83;;;1.60;;
71806;SDS011;59655;42.590;23.364;2024-01-15T09:29:38;4.60;;;1.75;;
71806;SDS011;59655;42.590;23.364;2024-01-15T09:32:05;4.78;;;2.10;;
71806;SDS011;59655;42.590;23.364;2024-01-15T09:34:32;6.00;;;2.08;;
71806;SDS011;59655;42.590;23.364;2024-01-15T09:36:58;4.47;;;1.70;;
71806;SDS011;59655;42.590;23.364;2024-01-15T09:39:25;3.25;;;1.27;;
71806;SDS011;59655;42.590;23.364;2024-01-15T09:41:51;6.72;;;2.05;;
71806;SDS011;59655;42.590;23.364;2024-01-15T09:44:16;4.03;;;1.42;;
71806;SDS011;59655;42.590;23.364;2024-01-15T09:46:42;6.75;;;1.38;;
71806;SDS011;59655;42.590;23.364;2024-01-15T09:49:09;7.32;;;3.55;;
71806;SDS011;59655;42.590;23.364;2024-01-15T09:51:35;6.07;;;2.63;;
71806;SDS011;59655;42.590;23.364;2024-01-15T09:54:01;4.47;;;2.00;;
71806;SDS011;59655;42.590;23.364;2024-01-15T09:56:27;4.88;;;1.80;;
71806;SDS011;59655;42.590;23.364;2024-01-15T09:58:52;6.18;;;2.50;;
71806;SDS011;59655;42.590;23.364;2024-01-15T10:01:20;4.90;;;2.20;;
71806;SDS011;59655;42.590;23.364;2024-01-15T10:03:45;6.47;;;2.75;;
71806;SDS011;59655;42.590;23.364;2024-01-15T10:06:11;9.32;;;3.88;;
71806;SDS011;59655;42.590;23.364;2024-01-15T10:08:42;4.65;;;2.00;;
71806;SDS011;59655;42.590;23.364;2024-01-15T10:11:12;15.15;;;5.60;;
71806;SDS011;59655;42.590;23.364;2024-01-15T10:13:38;5.45;;;1.83;;
71806;SDS011;59655;42.590;23.364;2024-01-15T10:16:04;8.45;;;3.28;;
71806;SDS011;59655;42.590;23.364;2024-01-15T10:18:30;3.78;;;2.08;;
71806;SDS011;59655;42.590;23.364;2024-01-15T10:20:56;7.50;;;3.53;;
71806;SDS011;59655;42.590;23.364;2024-01-15T10:23:22;10.05;;;3.42;;
71806;SDS011;59655;42.590;23.364;2024-01-15T10:25:48;8.43;;;3.05;;
71806;SDS011;59655;42.590;23.364;2024-01-15T10:28:14;8.57;;;3.22;;
71806;SDS011;59655;42.590;23.364;2024-01-15T10:30:39;3.13;;;1.20;;
71806;SDS011;59655;42.590;23.364;2024-01-15T10:33:05;9.68;;;3.88;;
71806;SDS011;59655;42.590;23.364;2024-01-15T10:35:32;4.30;;;1.60;;
71806;SDS011;59655;42.590;23.364;2024-01-15T10:40:24;14.60;;;5.80;;
71806;SDS011;59655;42.590;23.364;2024-01-15T10:42:50;3.20;;;1.42;;
71806;SDS011;59655;42.590;23.364;2024-01-15T10:45:15;5.90;;;1.60;;
71806;SDS011;59655;42.590;23.364;2024-01-15T10:47:41;4.53;;;1.65;;
71806;SDS011;59655;42.590;23.364;2024-01-15T10:50:07;5.55;;;1.88;;
71806;SDS011;59655;42.590;23.364;2024-01-15T10:52:35;5.57;;;1.98;;
71806;SDS011;59655;42.590;23.364;2024-01-15T10:55:08;3.45;;;1.38;;
71806;SDS011;59655;42.590;23.364;2024-01-15T10:57:35;4.28;;;1.60;;
71806;SDS011;59655;42.590;23.364;2024-01-15T11:00:02;5.35;;;1.80;;
71806;SDS011;59655;42.590;23.364;2024-01-15T11:04:56;2.78;;;0.90;;
71806;SDS011;59655;42.590;23.364;2024-01-15T11:07:22;6.72;;;2.22;;
71806;SDS011;59655;42.590;23.364;2024-01-15T11:09:49;3.72;;;1.40;;
71806;SDS011;59655;42.590;23.364;2024-01-15T11:12:15;3.92;;;1.35;;
71806;SDS011;59655;42.590;23.364;2024-01-15T11:14:45;6.22;;;2.42;;
71806;SDS011;59655;42.590;23.364;2024-01-15T11:17:12;7.47;;;2.30;;
71806;SDS011;59655;42.590;23.364;2024-01-15T11:22:07;5.30;;;1.40;;
71806;SDS011;59655;42.590;23.364;2024-01-15T11:24:56;7.90;;;2.55;;
71806;SDS011;59655;42.590;23.364;2024-01-15T11:30:12;6.50;;;2.03;;
71806;SDS011;59655;42.590;23.364;2024-01-15T11:32:38;5.88;;;1.73;;
71806;SDS011;59655;42.590;23.364;2024-01-15T11:35:08;12.88;;;5.07;;
71806;SDS011;59655;42.590;23.364;2024-01-15T11:40:22;3.80;;;1.63;;
71806;SDS011;59655;42.590;23.364;2024-01-15T11:43:02;5.57;;;2.00;;
71806;SDS011;59655;42.590;23.364;2024-01-15T11:45:28;6.78;;;1.85;;
71806;SDS011;59655;42.590;23.364;2024-01-15T11:48:14;6.95;;;2.15;;
71806;SDS011;59655;42.590;23.364;2024-01-15T11:50:45;4.57;;;1.92;;
71806;SDS011;59655;42.590;23.364;2024-01-15T11:53:33;8.57;;;3.03;;
71806;SDS011;59655;42.590;23.364;2024-01-15T11:55:59;5.95;;;2.22;;
71806;SDS011;59655;42.590;23.364;2024-01-15T11:58:27;6.75;;;2.53;;
71806;SDS011;59655;42.590;23.364;2024-01-15T12:00:52;7.05;;;2.40;;
71806;SDS011;59655;42.590;23.364;2024-01-15T12:03:23;7.75;;;2.10;;
71806;SDS011;59655;42.590;23.364;2024-01-15T12:05:49;4.13;;;1.67;;
71806;SDS011;59655;42.590;23.364;2024-01-15T12:08:14;3.30;;;1.33;;
71806;SDS011;59655;42.590;23.364;2024-01-15T12:10:40;6.05;;;2.13;;
71806;SDS011;59655;42.590;23.364;2024-01-15T12:15:34;4.35;;;1.45;;
71806;SDS011;59655;42.590;23.364;2024-01-15T12:18:00;7.47;;;2.22;;
71806;SDS011;59655;42.590;23.364;2024-01-15T12:20:27;4.75;;;1.60;;
71806;SDS011;59655;42.590;23.364;2024-01-15T12:22:54;4.10;;;1.80;;
71806;SDS011;59655;42.590;23.364;2024-01-15T12:25:23;10.60;;;5.20;;
71806;SDS011;59655;42.590;23.364;2024-01-15T12:27:49;3.05;;;1.63;;
71806;SDS011;59655;42.590;23.364;2024-01-15T12:30:16;9.68;;;4.40;;
71806;SDS011;59655;42.590;23.364;2024-01-15T12:32:41;7.75;;;3.55;;
71806;SDS011;59655;42.590;23.364;2024-01-15T12:35:07;22.55;;;11.05;;
71806;SDS011;59655;42.590;23.364;2024-01-15T12:37:37;28.70;;;12.65;;
71806;SDS011;59655;42.590;23.364;2024-01-15T12:40:04;19.45;;;10.15;;
71806;SDS011;59655;42.590;23.364;2024-01-15T12:42:32;31.58;;;13.32;;
71806;SDS011;59655;42.590;23.364;2024-01-15T12:44:58;37.20;;;16.30;;
71806;SDS011;59655;42.590;23.364;2024-01-15T12:47:23;35.05;;;17.02;;
71806;SDS011;59655;42.590;23.364;2024-01-15T12:49:48;38.95;;;16.77;;
71806;SDS011;59655;42.590;23.364;2024-01-15T12:52:18;36.40;;;16.42;;
71806;SDS011;59655;42.590;23.364;2024-01-15T12:54:44;36.17;;;19.27;;
71806;SDS011;59655;42.590;23.364;2024-01-15T12:57:09;41.05;;;19.33;;
71806;SDS011;59655;42.590;23.364;2024-01-15T12:59:34;29.30;;;13.73;;
71806;SDS011;59655;42.590;23.364;2024-01-15T13:02:00;31.23;;;14.70;;
71806;SDS011;59655;42.590;23.364;2024-01-15T13:04:25;25.08;;;10.60;;
71806;SDS011;59655;42.590;23.364;2024-01-15T13:06:51;24.17;;;11.23;;
71806;SDS011;59655;42.590;23.364;2024-01-15T13:09:18;22.17;;;12.07;;
71806;SDS011;59655;42.590;23.364;2024-01-15T13:11:44;25.92;;;11.20;;
71806;SDS011;59655;42.590;23.364;2024-01-15T13:14:10;22.88;;;10.95;;
71806;SDS011;59655;42.590;23.364;2024-01-15T13:16:35;25.77;;;12.77;;
71806;SDS011;59655;42.590;23.364;2024-01-15T13:19:00;23.55;;;11.95;;
71806;SDS011;59655;42.590;23.364;2024-01-15T13:21:26;24.00;;;12.35;;
71806;SDS011;59655;42.590;23.364;2024-01-15T13:23:51;20.10;;;9.27;;
71806;SDS011;59655;42.590;23.364;2024-01-15T13:26:16;20.50;;;8.30;;
71806;SDS011;59655;42.590;23.364;2024-01-15T13:28:44;15.35;;;6.47;;
71806;SDS011;59655;42.590;23.364;2024-01-15T13:31:09;15.93;;;6.57;;
71806;SDS011;59655;42.590;23.364;2024-01-15T13:33:34;10.95;;;5.40;;
71806;SDS011;59655;42.590;23.364;2024-01-15T13:36:00;10.93;;;5.90;;
71806;SDS011;59655;42.590;23.364;2024-01-15T13:38:25;13.55;;;5.75;;
71806;SDS011;59655;42.590;23.364;2024-01-15T13:40:52;15.80;;;6.57;;
71806;SDS011;59655;42.590;23.364;2024-01-15T13:43:21;11.20;;;4.95;;
71806;SDS011;59655;42.590;23.364;2024-01-15T13:45:46;10.67;;;4.93;;
71806;SDS011;59655;42.590;23.364;2024-01-15T13:48:12;14.07;;;6.03;;
71806;SDS011;59655;42.590;23.364;2024-01-15T13:50:37;13.32;;;6.05;;
71806;SDS011;59655;42.590;23.364;2024-01-15T13:53:03;13.35;;;5.53;;
71806;SDS011;59655;42.590;23.364;2024-01-15T13:55:29;15.48;;;7.03;;
71806;SDS011;59655;42.590;23.364;2024-01-15T13:57:54;15.65;;;7.43;;
71806;SDS011;59655;42.590;23.364;2024-01-15T14:00:20;24.58;;;10.63;;
71806;SDS011;59655;42.590;23.364;2024-01-15T14:02:45;24.05;;;10.02;;
71806;SDS011;59655;42.590;23.364;2024-01-15T14:05:11;18.13;;;7.55;;
71806;SDS011;59655;42.590;23.364;2024-01-15T14:07:38;17.95;;;8.75;;
71806;SDS011;59655;42.590;23.364;2024-01-15T14:10:04;18.33;;;7.50;;
71806;SDS011;59655;42.590;23.364;2024-01-15T14:12:30;10.75;;;5.00;;
71806;SDS011;59655;42.590;23.364;2024-01-15T14:14:56;10.75;;;5.20;;
71806;SDS011;59655;42.590;23.364;2024-01-15T14:17:21;14.73;;;6.03;;
71806;SDS011;59655;42.590;23.364;2024-01-15T14:19:47;11.80;;;5.65;;
71806;SDS011;59655;42.590;23.364;2024-01-15T14:22:12;9.15;;;3.72;;
71806;SDS011;59655;42.590;23.364;2024-01-15T14:24:37;7.78;;;3.80;;
71806;SDS011;59655;42.590;23.364;2024-01-15T14:27:03;10.05;;;3.50;;
71806;SDS011;59655;42.590;23.364;2024-01-15T14:29:30;8.82;;;4.38;;